Terminal Aerodrome Forecast
Issued by NWS Milwaukee/Sullivan, WI

Home | Current Version | Previous Version | Text Only | Print | Product List | Glossary On
Versions: 1 2 3 4 5 6 7 8 9 10 11 12 13 14 15 16 17 18 19 20 21 22 23 24 25 26 27 28 29 30 31 32 33 34 35 36 37 38 39 40 41 42 43 44 45 46 47 48 49 50
363
FTUS43 KMKX 261134
TAFMKE
TAF
KMKE 261134Z 2612/2718 26010KT P6SM SCT200
     FM261400 25012G22KT P6SM FEW040 SCT250
     FM261700 26017G32KT P6SM SCT050
      TEMPO 2617/2621 BKN050
     FM262300 27012G22KT P6SM SCT050 SCT150
     FM270100 27010KT P6SM SCT070 BKN150
     FM271600 27015G23KT P6SM BKN050=

USA.gov is the U.S. government's official web portal to all federal, state and local government web resources and services.